茨城 の空港の天気 - METARとTAF

茨城空港(百里飛行場) ( RJAH / IBR ) - 茨城県小美玉市
飛行場実況気象(Metar)
観測時間06/05 04:00 JST (06/04 19:00 UTC)
風向・風速北北東 2m/s
視程500m
天気現象
全天の4割程度の雲 雲底高度 不明
全天の8割程度の雲 雲底高度 30m
気温18℃
湿度94%
気圧1005hPa
METARRJAH 041900Z 02003KT 0500 R21/0500V0750N FG SCT000 BKN001 18/17 Q1005
過去の天気等 Google飛行場航空写真 Wunderground天気予報

過去48時間のMETAR

飛行場予報(TAF)
発表時間: 6/05 02:05 JST (6/04 17:05 UTC)
予報対象時間: 5日3時 JST ~ 6日9時 JST
風向・風速東 2m/s
視程3000m
天気現象もや
少しの雲 雲底高度 150m
全天の8割程度の雲 雲底高度 370m
5日3時 JST ~ 5日8時 JST に一時的に
視程700m
天気現象
少しの雲 雲底高度 30m
全天の8割程度の雲 雲底高度 150m
5日8時 JST ~ 5日10時 JST に徐々に
風向・風速南 4m/s
視程10km以上
天気現象運行に影響にある天気現象が終了
5日21時 JST ~ 5日24時 JST に徐々に
風向・風速北東 4m/s
6日0時 JST ~ 6日6時 JST に一時的に
視程2000m
天気現象もや
少しの雲 雲底高度 90m
全天の8割程度の雲 雲底高度 240m
TAF RJAH 041705Z 0418/0600 08004KT 3000 BR FEW005 BKN012
TEMPO 0418/0423 0700 FG FEW001 BKN005
BECMG 0423/0501 18008KT 9999 NSW
BECMG 0512/0515 04008KT
TEMPO 0515/0521 2000 BR FEW003 BKN008
日本の空港のMETAR・TAFへのリンク

RJTT 東京国際空港
RJAA 新東京国際空港
RJBB 関西国際空港
RJOO 大阪空港
RJGG 中部国際空港
RJCC 新千歳空港
RJFF 福岡空港
ROAH 那覇空港


RJEC 旭川空港
RJCH 函館空港
RJCK 釧路空港
RJCM 女満別空港
RJCB 帯広空港
RJSA 青森空港
RJSS 仙台空港
RJSK 秋田空港
RJSF 福島空港
RJAH 茨城空港
RJSN 新潟空港
RJNT 富山空港
RJNK 小松飛行場
RJNS 静岡空港
RJOH 美保飛行場
RJOC 出雲空港
RJOB 岡山空港
RJOA 広島空港
RJOI 岩国飛行場
RJOT 高松空港
RJOM 松山空港
RJOK 高知空港
RJFR 北九州空港
RJFT 熊本空港
RJFU 長崎空港
RJFS 佐賀空港
RJFO 大分空港
RJFM 宮崎空港
RJFK 鹿児島空港
ROIG 石垣島空港
RJTY 横田飛行場
ROTM 普天間飛行場
RODN 嘉手納飛行場